sensor_id;sensor_type;location;lat;lon;timestamp;temperature;humidity
9157;DHT22;4613;48.392;9.998;2022-10-12T00:00:39;13.80;99.90
9157;DHT22;4613;48.392;9.998;2022-10-12T00:03:28;13.80;99.90
9157;DHT22;4613;48.392;9.998;2022-10-12T00:06:21;13.80;99.90
9157;DHT22;4613;48.392;9.998;2022-10-12T00:09:11;13.80;99.90
9157;DHT22;4613;48.392;9.998;2022-10-12T00:12:02;13.80;99.90
9157;DHT22;4613;48.392;9.998;2022-10-12T00:14:51;13.80;99.90
9157;DHT22;4613;48.392;9.998;2022-10-12T00:17:40;13.70;99.90
9157;DHT22;4613;48.392;9.998;2022-10-12T00:20:30;13.80;99.90
9157;DHT22;4613;48.392;9.998;2022-10-12T00:23:19;13.80;99.90
9157;DHT22;4613;48.392;9.998;2022-10-12T00:26:28;13.80;99.90
9157;DHT22;4613;48.392;9.998;2022-10-12T00:29:17;13.70;99.90
9157;DHT22;4613;48.392;9.998;2022-10-12T00:32:07;13.70;99.90
9157;DHT22;4613;48.392;9.998;2022-10-12T00:34:56;13.70;99.90
9157;DHT22;4613;48.392;9.998;2022-10-12T00:37:45;13.70;99.90
9157;DHT22;4613;48.392;9.998;2022-10-12T00:40:35;13.70;99.90
9157;DHT22;4613;48.392;9.998;2022-10-12T00:43:32;13.70;99.90
9157;DHT22;4613;48.392;9.998;2022-10-12T00:46:38;13.60;99.90
9157;DHT22;4613;48.392;9.998;2022-10-12T00:49:29;13.50;99.90
9157;DHT22;4613;48.392;9.998;2022-10-12T00:52:23;13.30;99.90
9157;DHT22;4613;48.392;9.998;2022-10-12T00:55:17;13.40;99.90
9157;DHT22;4613;48.392;9.998;2022-10-12T00:58:07;13.50;99.90
9157;DHT22;4613;48.392;9.998;2022-10-12T01:01:04;13.50;99.90
9157;DHT22;4613;48.392;9.998;2022-10-12T01:03:54;13.50;99.90
9157;DHT22;4613;48.392;9.998;2022-10-12T01:06:44;13.50;99.90
9157;DHT22;4613;48.392;9.998;2022-10-12T01:09:34;13.40;99.90
9157;DHT22;4613;48.392;9.998;2022-10-12T01:12:23;13.50;99.90
9157;DHT22;4613;48.392;9.998;2022-10-12T01:15:13;13.50;99.90
9157;DHT22;4613;48.392;9.998;2022-10-12T01:18:21;13.40;99.90
9157;DHT22;4613;48.392;9.998;2022-10-12T01:21:18;13.40;99.90
9157;DHT22;4613;48.392;9.998;2022-10-12T01:27:28;13.40;99.90
9157;DHT22;4613;48.392;9.998;2022-10-12T01:30:24;13.40;99.90
9157;DHT22;4613;48.392;9.998;2022-10-12T01:33:34;13.40;99.90
9157;DHT22;4613;48.392;9.998;2022-10-12T01:36:32;13.40;99.90
9157;DHT22;4613;48.392;9.998;2022-10-12T01:39:33;13.40;99.90
9157;DHT22;4613;48.392;9.998;2022-10-12T01:42:36;13.30;99.90
9157;DHT22;4613;48.392;9.998;2022-10-12T01:45:26;13.30;99.90
9157;DHT22;4613;48.392;9.998;2022-10-12T01:48:16;13.30;99.90
9157;DHT22;4613;48.392;9.998;2022-10-12T01:51:07;13.40;99.90
9157;DHT22;4613;48.392;9.998;2022-10-12T02:00:13;13.20;99.90
9157;DHT22;4613;48.392;9.998;2022-10-12T02:03:25;13.10;99.90
9157;DHT22;4613;48.392;9.998;2022-10-12T02:06:19;13.10;99.90
9157;DHT22;4613;48.392;9.998;2022-10-12T02:12:12;13.20;99.90
9157;DHT22;4613;48.392;9.998;2022-10-12T02:15:07;13.20;99.90
9157;DHT22;4613;48.392;9.998;2022-10-12T02:17:57;13.30;99.90
9157;DHT22;4613;48.392;9.998;2022-10-12T02:20:50;13.20;99.90
9157;DHT22;4613;48.392;9.998;2022-10-12T02:23:43;13.20;99.90
9157;DHT22;4613;48.392;9.998;2022-10-12T02:26:36;13.20;99.90
9157;DHT22;4613;48.392;9.998;2022-10-12T02:29:35;13.10;99.90
9157;DHT22;4613;48.392;9.998;2022-10-12T02:32:42;13.10;99.90
9157;DHT22;4613;48.392;9.998;2022-10-12T02:36:00;13.00;99.90
9157;DHT22;4613;48.392;9.998;2022-10-12T02:38:58;13.00;99.90
9157;DHT22;4613;48.392;9.998;2022-10-12T02:41:50;13.00;99.90
9157;DHT22;4613;48.392;9.998;2022-10-12T02:44:40;13.10;99.90
9157;DHT22;4613;48.392;9.998;2022-10-12T02:47:31;13.20;99.90
9157;DHT22;4613;48.392;9.998;2022-10-12T02:50:23;13.20;99.90
9157;DHT22;4613;48.392;9.998;2022-10-12T02:53:13;13.30;99.90
9157;DHT22;4613;48.392;9.998;2022-10-12T02:56:05;13.30;99.90
9157;DHT22;4613;48.392;9.998;2022-10-12T02:58:55;13.20;99.90
9157;DHT22;4613;48.392;9.998;2022-10-12T03:01:45;13.30;99.90
9157;DHT22;4613;48.392;9.998;2022-10-12T03:04:35;13.40;99.90
9157;DHT22;4613;48.392;9.998;2022-10-12T03:07:24;13.40;99.90
9157;DHT22;4613;48.392;9.998;2022-10-12T03:10:14;13.40;99.90
9157;DHT22;4613;48.392;9.998;2022-10-12T03:13:04;13.40;99.90
9157;DHT22;4613;48.392;9.998;2022-10-12T03:15:53;13.30;99.90
9157;DHT22;4613;48.392;9.998;2022-10-12T03:18:43;13.30;99.90
9157;DHT22;4613;48.392;9.998;2022-10-12T03:21:33;13.30;99.90
9157;DHT22;4613;48.392;9.998;2022-10-12T03:24:22;13.30;99.90
9157;DHT22;4613;48.392;9.998;2022-10-12T03:27:12;13.20;99.90
9157;DHT22;4613;48.392;9.998;2022-10-12T03:30:02;13.20;99.90
9157;DHT22;4613;48.392;9.998;2022-10-12T03:32:52;13.20;99.90
9157;DHT22;4613;48.392;9.998;2022-10-12T03:35:44;13.20;99.90
9157;DHT22;4613;48.392;9.998;2022-10-12T03:38:34;13.20;99.90
9157;DHT22;4613;48.392;9.998;2022-10-12T03:41:24;13.20;99.90
9157;DHT22;4613;48.392;9.998;2022-10-12T03:44:13;13.20;99.90
9157;DHT22;4613;48.392;9.998;2022-10-12T03:47:02;13.20;99.90
9157;DHT22;4613;48.392;9.998;2022-10-12T03:49:52;13.10;99.90
9157;DHT22;4613;48.392;9.998;2022-10-12T03:52:41;13.10;99.90
9157;DHT22;4613;48.392;9.998;2022-10-12T03:55:31;13.00;99.90
9157;DHT22;4613;48.392;9.998;2022-10-12T03:58:20;13.00;99.90
9157;DHT22;4613;48.392;9.998;2022-10-12T04:01:10;13.10;99.90
9157;DHT22;4613;48.392;9.998;2022-10-12T04:04:00;13.10;99.90
9157;DHT22;4613;48.392;9.998;2022-10-12T04:06:49;13.10;99.90
9157;DHT22;4613;48.392;9.998;2022-10-12T04:09:39;13.10;99.90
9157;DHT22;4613;48.392;9.998;2022-10-12T04:12:28;13.10;99.90
9157;DHT22;4613;48.392;9.998;2022-10-12T04:15:19;13.00;99.90
9157;DHT22;4613;48.392;9.998;2022-10-12T04:18:09;13.00;99.90
9157;DHT22;4613;48.392;9.998;2022-10-12T04:20:59;13.10;99.90
9157;DHT22;4613;48.392;9.998;2022-10-12T04:23:51;13.20;99.90
9157;DHT22;4613;48.392;9.998;2022-10-12T04:26:41;13.10;99.90
9157;DHT22;4613;48.392;9.998;2022-10-12T04:29:30;13.00;99.90
9157;DHT22;4613;48.392;9.998;2022-10-12T04:32:20;13.00;99.90
9157;DHT22;4613;48.392;9.998;2022-10-12T04:35:09;13.00;99.90
9157;DHT22;4613;48.392;9.998;2022-10-12T04:37:59;13.10;99.90
9157;DHT22;4613;48.392;9.998;2022-10-12T04:40:49;13.20;99.90
9157;DHT22;4613;48.392;9.998;2022-10-12T04:43:38;13.20;99.90
9157;DHT22;4613;48.392;9.998;2022-10-12T04:46:27;13.10;99.90
9157;DHT22;4613;48.392;9.998;2022-10-12T04:49:16;13.10;99.90
9157;DHT22;4613;48.392;9.998;2022-10-12T04:52:06;13.10;99.90
9157;DHT22;4613;48.392;9.998;2022-10-12T04:54:55;13.10;99.90
9157;DHT22;4613;48.392;9.998;2022-10-12T04:57:45;13.00;99.90
9157;DHT22;4613;48.392;9.998;2022-10-12T05:00:34;13.10;99.90
9157;DHT22;4613;48.392;9.998;2022-10-12T05:03:24;13.10;99.90
9157;DHT22;4613;48.392;9.998;2022-10-12T05:06:15;13.10;99.90
9157;DHT22;4613;48.392;9.998;2022-10-12T05:09:05;13.20;99.90
9157;DHT22;4613;48.392;9.998;2022-10-12T05:11:54;13.10;99.90
9157;DHT22;4613;48.392;9.998;2022-10-12T05:14:44;13.00;99.90
9157;DHT22;4613;48.392;9.998;2022-10-12T05:17:33;13.10;99.90
9157;DHT22;4613;48.392;9.998;2022-10-12T05:20:22;13.10;99.90
9157;DHT22;4613;48.392;9.998;2022-10-12T05:23:12;13.00;99.90
9157;DHT22;4613;48.392;9.998;2022-10-12T05:26:01;13.00;99.90
9157;DHT22;4613;48.392;9.998;2022-10-12T05:28:50;13.00;99.90
9157;DHT22;4613;48.392;9.998;2022-10-12T05:31:45;12.90;99.90
9157;DHT22;4613;48.392;9.998;2022-10-12T05:34:34;12.90;99.90
9157;DHT22;4613;48.392;9.998;2022-10-12T05:37:24;12.80;99.90
9157;DHT22;4613;48.392;9.998;2022-10-12T05:40:14;12.90;99.90
9157;DHT22;4613;48.392;9.998;2022-10-12T05:43:06;12.90;99.90
9157;DHT22;4613;48.392;9.998;2022-10-12T05:45:56;12.90;99.90
9157;DHT22;4613;48.392;9.998;2022-10-12T05:48:45;13.00;99.90
9157;DHT22;4613;48.392;9.998;2022-10-12T05:51:34;13.00;99.90
9157;DHT22;4613;48.392;9.998;2022-10-12T05:54:25;13.10;99.90
9157;DHT22;4613;48.392;9.998;2022-10-12T05:57:17;13.10;99.90
9157;DHT22;4613;48.392;9.998;2022-10-12T06:00:08;13.10;99.90
9157;DHT22;4613;48.392;9.998;2022-10-12T06:03:01;13.20;99.90
9157;DHT22;4613;48.392;9.998;2022-10-12T06:05:51;13.20;99.90
9157;DHT22;4613;48.392;9.998;2022-10-12T06:08:40;13.20;99.90
9157;DHT22;4613;48.392;9.998;2022-10-12T06:11:29;13.20;99.90
9157;DHT22;4613;48.392;9.998;2022-10-12T06:14:19;13.30;99.90
9157;DHT22;4613;48.392;9.998;2022-10-12T06:17:08;13.20;99.90
9157;DHT22;4613;48.392;9.998;2022-10-12T06:19:57;14.40;99.90
9157;DHT22;4613;48.392;9.998;2022-10-12T06:22:47;15.30;99.90
9157;DHT22;4613;48.392;9.998;2022-10-12T06:25:36;15.90;99.90
9157;DHT22;4613;48.392;9.998;2022-10-12T06:28:26;16.00;99.90
9157;DHT22;4613;48.392;9.998;2022-10-12T06:31:15;14.70;99.90
9157;DHT22;4613;48.392;9.998;2022-10-12T06:34:05;13.80;99.90
9157;DHT22;4613;48.392;9.998;2022-10-12T06:36:54;13.40;99.90
9157;DHT22;4613;48.392;9.998;2022-10-12T06:39:44;13.40;99.90
9157;DHT22;4613;48.392;9.998;2022-10-12T06:42:33;13.40;99.90
9157;DHT22;4613;48.392;9.998;2022-10-12T06:45:31;13.40;99.90
9157;DHT22;4613;48.392;9.998;2022-10-12T06:48:20;13.40;99.90
9157;DHT22;4613;48.392;9.998;2022-10-12T06:51:10;13.20;99.90
9157;DHT22;4613;48.392;9.998;2022-10-12T06:54:00;13.30;99.90
9157;DHT22;4613;48.392;9.998;2022-10-12T06:56:50;13.40;99.90
9157;DHT22;4613;48.392;9.998;2022-10-12T06:59:39;13.30;99.90
9157;DHT22;4613;48.392;9.998;2022-10-12T07:02:28;13.40;99.90
9157;DHT22;4613;48.392;9.998;2022-10-12T07:05:18;13.40;99.90
9157;DHT22;4613;48.392;9.998;2022-10-12T07:08:09;13.40;99.90
9157;DHT22;4613;48.392;9.998;2022-10-12T07:11:02;13.40;99.90
9157;DHT22;4613;48.392;9.998;2022-10-12T07:13:51;13.30;99.90
9157;DHT22;4613;48.392;9.998;2022-10-12T07:16:40;13.50;99.90
9157;DHT22;4613;48.392;9.998;2022-10-12T07:19:29;13.50;99.90
9157;DHT22;4613;48.392;9.998;2022-10-12T07:22:20;13.70;99.90
9157;DHT22;4613;48.392;9.998;2022-10-12T07:25:09;13.80;99.90
9157;DHT22;4613;48.392;9.998;2022-10-12T07:27:58;13.80;99.90
9157;DHT22;4613;48.392;9.998;2022-10-12T07:30:48;13.70;99.90
9157;DHT22;4613;48.392;9.998;2022-10-12T07:33:37;13.70;99.90
9157;DHT22;4613;48.392;9.998;2022-10-12T07:36:27;13.60;99.90
9157;DHT22;4613;48.392;9.998;2022-10-12T07:39:22;13.50;99.90
9157;DHT22;4613;48.392;9.998;2022-10-12T07:42:12;13.70;99.90
9157;DHT22;4613;48.392;9.998;2022-10-12T07:45:04;13.70;99.90
9157;DHT22;4613;48.392;9.998;2022-10-12T07:47:55;13.80;99.90
9157;DHT22;4613;48.392;9.998;2022-10-12T07:50:44;13.70;99.90
9157;DHT22;4613;48.392;9.998;2022-10-12T07:53:35;13.70;99.90
9157;DHT22;4613;48.392;9.998;2022-10-12T07:56:25;13.70;99.90
9157;DHT22;4613;48.392;9.998;2022-10-12T07:59:15;13.60;99.90
9157;DHT22;4613;48.392;9.998;2022-10-12T08:02:10;13.60;99.90
9157;DHT22;4613;48.392;9.998;2022-10-12T08:04:59;13.50;99.90
9157;DHT22;4613;48.392;9.998;2022-10-12T08:07:50;13.70;99.90
9157;DHT22;4613;48.392;9.998;2022-10-12T08:10:39;13.80;99.90
9157;DHT22;4613;48.392;9.998;2022-10-12T08:13:28;13.90;99.90
9157;DHT22;4613;48.392;9.998;2022-10-12T08:16:19;14.00;99.90
9157;DHT22;4613;48.392;9.998;2022-10-12T08:19:08;13.90;99.90
9157;DHT22;4613;48.392;9.998;2022-10-12T08:21:58;13.90;99.90
9157;DHT22;4613;48.392;9.998;2022-10-12T08:24:49;13.80;99.90
9157;DHT22;4613;48.392;9.998;2022-10-12T08:27:38;13.90;99.90
9157;DHT22;4613;48.392;9.998;2022-10-12T08:30:33;13.80;99.90
9157;DHT22;4613;48.392;9.998;2022-10-12T08:33:22;13.90;99.90
9157;DHT22;4613;48.392;9.998;2022-10-12T08:36:11;14.00;99.90
9157;DHT22;4613;48.392;9.998;2022-10-12T08:39:01;14.00;99.90
9157;DHT22;4613;48.392;9.998;2022-10-12T08:42:28;14.00;99.90
9157;DHT22;4613;48.392;9.998;2022-10-12T08:48:34;13.90;99.90
9157;DHT22;4613;48.392;9.998;2022-10-12T08:51:30;13.90;99.90
9157;DHT22;4613;48.392;9.998;2022-10-12T08:54:23;14.00;99.90
9157;DHT22;4613;48.392;9.998;2022-10-12T08:57:18;14.10;99.90
9157;DHT22;4613;48.392;9.998;2022-10-12T09:00:14;14.20;99.90
9157;DHT22;4613;48.392;9.998;2022-10-12T09:14:49;13.90;99.90
9157;DHT22;4613;48.392;9.998;2022-10-12T09:17:42;14.00;99.90
9157;DHT22;4613;48.392;9.998;2022-10-12T09:20:47;13.80;99.90
9157;DHT22;4613;48.392;9.998;2022-10-12T09:23:39;13.70;99.90
9157;DHT22;4613;48.392;9.998;2022-10-12T09:26:37;13.80;99.90
9157;DHT22;4613;48.392;9.998;2022-10-12T09:29:30;13.80;99.90
9157;DHT22;4613;48.392;9.998;2022-10-12T09:33:15;13.80;99.90
9157;DHT22;4613;48.392;9.998;2022-10-12T09:35:57;13.90;99.90
9157;DHT22;4613;48.392;9.998;2022-10-12T09:38:48;13.70;99.90
9157;DHT22;4613;48.392;9.998;2022-10-12T09:41:40;13.70;99.90
9157;DHT22;4613;48.392;9.998;2022-10-12T09:45:00;13.90;99.90
9157;DHT22;4613;48.392;9.998;2022-10-12T09:51:02;13.70;99.90
9157;DHT22;4613;48.392;9.998;2022-10-12T09:53:54;13.90;99.90
9157;DHT22;4613;48.392;9.998;2022-10-12T09:56:50;14.20;99.90
9157;DHT22;4613;48.392;9.998;2022-10-12T09:59:43;14.50;99.90
9157;DHT22;4613;48.392;9.998;2022-10-12T10:02:46;14.70;99.90
9157;DHT22;4613;48.392;9.998;2022-10-12T10:05:37;14.70;99.90
9157;DHT22;4613;48.392;9.998;2022-10-12T10:08:27;14.80;99.90
9157;DHT22;4613;48.392;9.998;2022-10-12T10:11:22;14.90;99.90
9157;DHT22;4613;48.392;9.998;2022-10-12T10:14:14;14.90;99.90
9157;DHT22;4613;48.392;9.998;2022-10-12T10:17:04;14.80;99.90
9157;DHT22;4613;48.392;9.998;2022-10-12T10:19:55;14.80;99.90
9157;DHT22;4613;48.392;9.998;2022-10-12T10:22:47;14.80;99.90
9157;DHT22;4613;48.392;9.998;2022-10-12T10:25:38;14.60;99.90
9157;DHT22;4613;48.392;9.998;2022-10-12T10:28:34;14.40;99.90
9157;DHT22;4613;48.392;9.998;2022-10-12T10:31:26;14.50;99.90
9157;DHT22;4613;48.392;9.998;2022-10-12T10:37:15;14.80;99.90
9157;DHT22;4613;48.392;9.998;2022-10-12T10:40:13;14.90;99.90
9157;DHT22;4613;48.392;9.998;2022-10-12T10:43:06;15.00;99.90
9157;DHT22;4613;48.392;9.998;2022-10-12T10:46:04;15.00;99.90
9157;DHT22;4613;48.392;9.998;2022-10-12T10:48:56;14.90;99.90
9157;DHT22;4613;48.392;9.998;2022-10-12T10:51:54;14.90;99.90
9157;DHT22;4613;48.392;9.998;2022-10-12T10:54:46;14.70;99.90
9157;DHT22;4613;48.392;9.998;2022-10-12T10:57:41;14.80;99.90
9157;DHT22;4613;48.392;9.998;2022-10-12T11:00:34;14.70;99.90
9157;DHT22;4613;48.392;9.998;2022-10-12T11:03:29;14.80;99.90
9157;DHT22;4613;48.392;9.998;2022-10-12T11:06:41;14.90;99.90
9157;DHT22;4613;48.392;9.998;2022-10-12T11:09:40;14.80;99.90
9157;DHT22;4613;48.392;9.998;2022-10-12T11:12:33;14.90;99.90
9157;DHT22;4613;48.392;9.998;2022-10-12T11:15:49;15.00;99.90
9157;DHT22;4613;48.392;9.998;2022-10-12T11:18:51;14.90;99.90
9157;DHT22;4613;48.392;9.998;2022-10-12T11:21:52;15.00;99.90
9157;DHT22;4613;48.392;9.998;2022-10-12T11:24:48;15.00;99.90
9157;DHT22;4613;48.392;9.998;2022-10-12T11:27:40;15.10;99.90
9157;DHT22;4613;48.392;9.998;2022-10-12T11:30:42;15.30;99.90
9157;DHT22;4613;48.392;9.998;2022-10-12T11:33:40;15.10;99.90
9157;DHT22;4613;48.392;9.998;2022-10-12T11:36:34;15.00;99.90
9157;DHT22;4613;48.392;9.998;2022-10-12T11:39:37;15.10;99.90
9157;DHT22;4613;48.392;9.998;2022-10-12T11:42:39;15.20;99.90
9157;DHT22;4613;48.392;9.998;2022-10-12T11:45:35;15.20;99.90
9157;DHT22;4613;48.392;9.998;2022-10-12T11:48:33;15.30;99.90
9157;DHT22;4613;48.392;9.998;2022-10-12T11:51:23;15.40;99.90
9157;DHT22;4613;48.392;9.998;2022-10-12T11:57:25;15.30;99.90
9157;DHT22;4613;48.392;9.998;2022-10-12T12:00:19;15.50;99.90
9157;DHT22;4613;48.392;9.998;2022-10-12T12:06:58;15.60;99.90
9157;DHT22;4613;48.392;9.998;2022-10-12T12:09:49;15.70;99.90
9157;DHT22;4613;48.392;9.998;2022-10-12T12:16:28;16.00;99.90
9157;DHT22;4613;48.392;9.998;2022-10-12T12:22:50;16.20;99.90
9157;DHT22;4613;48.392;9.998;2022-10-12T12:25:42;16.10;99.90
9157;DHT22;4613;48.392;9.998;2022-10-12T12:28:32;16.10;99.90
9157;DHT22;4613;48.392;9.998;2022-10-12T12:34:13;16.10;99.90
9157;DHT22;4613;48.392;9.998;2022-10-12T12:37:11;16.10;99.90
9157;DHT22;4613;48.392;9.998;2022-10-12T12:40:05;16.00;99.90
9157;DHT22;4613;48.392;9.998;2022-10-12T12:46:18;15.90;99.90
9157;DHT22;4613;48.392;9.998;2022-10-12T12:49:26;16.00;99.90
9157;DHT22;4613;48.392;9.998;2022-10-12T12:52:48;16.00;99.90
9157;DHT22;4613;48.392;9.998;2022-10-12T13:11:53;16.00;99.90
9157;DHT22;4613;48.392;9.998;2022-10-12T13:15:20;16.10;99.90
9157;DHT22;4613;48.392;9.998;2022-10-12T13:21:42;16.20;99.90
9157;DHT22;4613;48.392;9.998;2022-10-12T13:27:51;16.10;99.90
9157;DHT22;4613;48.392;9.998;2022-10-12T13:30:54;16.10;99.90
9157;DHT22;4613;48.392;9.998;2022-10-12T13:33:57;17.30;99.90
9157;DHT22;4613;48.392;9.998;2022-10-12T13:36:59;17.60;99.90
9157;DHT22;4613;48.392;9.998;2022-10-12T13:39:49;17.60;99.90
9157;DHT22;4613;48.392;9.998;2022-10-12T13:42:42;17.00;99.90
9157;DHT22;4613;48.392;9.998;2022-10-12T13:45:32;16.60;99.90
9157;DHT22;4613;48.392;9.998;2022-10-12T13:48:22;16.40;99.90
9157;DHT22;4613;48.392;9.998;2022-10-12T13:51:21;16.30;99.90
9157;DHT22;4613;48.392;9.998;2022-10-12T13:54:16;16.20;99.90
9157;DHT22;4613;48.392;9.998;2022-10-12T13:57:38;16.10;99.90
9157;DHT22;4613;48.392;9.998;2022-10-12T14:00:28;16.10;99.90
9157;DHT22;4613;48.392;9.998;2022-10-12T14:03:26;15.90;99.90
9157;DHT22;4613;48.392;9.998;2022-10-12T14:06:25;16.00;99.90
9157;DHT22;4613;48.392;9.998;2022-10-12T14:09:19;16.00;99.90
9157;DHT22;4613;48.392;9.998;2022-10-12T14:12:10;16.00;99.90
9157;DHT22;4613;48.392;9.998;2022-10-12T14:15:00;15.90;99.90
9157;DHT22;4613;48.392;9.998;2022-10-12T14:17:50;15.90;99.90
9157;DHT22;4613;48.392;9.998;2022-10-12T14:20:40;15.80;99.90
9157;DHT22;4613;48.392;9.998;2022-10-12T14:23:30;15.70;99.90
9157;DHT22;4613;48.392;9.998;2022-10-12T14:26:41;15.50;99.90
9157;DHT22;4613;48.392;9.998;2022-10-12T14:29:52;15.70;99.90
9157;DHT22;4613;48.392;9.998;2022-10-12T14:32:45;15.90;99.90
9157;DHT22;4613;48.392;9.998;2022-10-12T14:35:36;15.90;99.90
9157;DHT22;4613;48.392;9.998;2022-10-12T14:38:43;15.90;99.90
9157;DHT22;4613;48.392;9.998;2022-10-12T14:41:52;15.90;99.90
9157;DHT22;4613;48.392;9.998;2022-10-12T14:44:42;15.90;99.90
9157;DHT22;4613;48.392;9.998;2022-10-12T14:47:39;15.90;99.90
9157;DHT22;4613;48.392;9.998;2022-10-12T14:50:29;16.00;99.90
9157;DHT22;4613;48.392;9.998;2022-10-12T14:53:19;16.00;99.90
9157;DHT22;4613;48.392;9.998;2022-10-12T14:56:10;15.80;99.90
9157;DHT22;4613;48.392;9.998;2022-10-12T14:58:59;15.90;99.90
9157;DHT22;4613;48.392;9.998;2022-10-12T15:01:50;15.90;99.90
9157;DHT22;4613;48.392;9.998;2022-10-12T15:04:39;15.70;99.90
9157;DHT22;4613;48.392;9.998;2022-10-12T15:07:30;15.80;99.90
9157;DHT22;4613;48.392;9.998;2022-10-12T15:10:22;16.00;99.90
9157;DHT22;4613;48.392;9.998;2022-10-12T15:13:12;16.10;99.90
9157;DHT22;4613;48.392;9.998;2022-10-12T15:16:02;16.10;99.90
9157;DHT22;4613;48.392;9.998;2022-10-12T15:18:52;16.10;99.90
9157;DHT22;4613;48.392;9.998;2022-10-12T15:21:42;16.10;99.90
9157;DHT22;4613;48.392;9.998;2022-10-12T15:24:32;15.80;99.90
9157;DHT22;4613;48.392;9.998;2022-10-12T15:27:26;15.80;99.90
9157;DHT22;4613;48.392;9.998;2022-10-12T15:30:16;15.80;99.90
9157;DHT22;4613;48.392;9.998;2022-10-12T15:33:06;15.70;99.90
9157;DHT22;4613;48.392;9.998;2022-10-12T15:35:55;15.70;99.90
9157;DHT22;4613;48.392;9.998;2022-10-12T15:38:45;15.70;99.90
9157;DHT22;4613;48.392;9.998;2022-10-12T15:41:35;15.60;99.90
9157;DHT22;4613;48.392;9.998;2022-10-12T15:44:25;15.50;99.90
9157;DHT22;4613;48.392;9.998;2022-10-12T15:47:15;15.60;99.90
9157;DHT22;4613;48.392;9.998;2022-10-12T15:50:04;15.50;99.90
9157;DHT22;4613;48.392;9.998;2022-10-12T15:52:55;15.40;99.90
9157;DHT22;4613;48.392;9.998;2022-10-12T15:55:45;15.20;99.90
9157;DHT22;4613;48.392;9.998;2022-10-12T15:58:34;15.30;99.90
9157;DHT22;4613;48.392;9.998;2022-10-12T16:01:24;15.40;99.90
9157;DHT22;4613;48.392;9.998;2022-10-12T16:04:13;15.40;99.90
9157;DHT22;4613;48.392;9.998;2022-10-12T16:07:04;15.40;99.90
9157;DHT22;4613;48.392;9.998;2022-10-12T16:09:55;15.40;99.90
9157;DHT22;4613;48.392;9.998;2022-10-12T16:12:46;15.30;99.90
9157;DHT22;4613;48.392;9.998;2022-10-12T16:15:36;15.30;99.90
9157;DHT22;4613;48.392;9.998;2022-10-12T16:18:28;15.20;99.90
9157;DHT22;4613;48.392;9.998;2022-10-12T16:21:22;15.20;99.90
9157;DHT22;4613;48.392;9.998;2022-10-12T16:24:11;15.20;99.90
9157;DHT22;4613;48.392;9.998;2022-10-12T16:27:01;15.20;99.90
9157;DHT22;4613;48.392;9.998;2022-10-12T16:29:50;15.10;99.90
9157;DHT22;4613;48.392;9.998;2022-10-12T16:32:40;15.10;99.90
9157;DHT22;4613;48.392;9.998;2022-10-12T16:35:31;15.10;99.90
9157;DHT22;4613;48.392;9.998;2022-10-12T16:38:21;15.00;99.90
9157;DHT22;4613;48.392;9.998;2022-10-12T16:41:13;15.10;99.90
9157;DHT22;4613;48.392;9.998;2022-10-12T16:44:03;15.10;99.90
9157;DHT22;4613;48.392;9.998;2022-10-12T16:46:52;15.10;99.90
9157;DHT22;4613;48.392;9.998;2022-10-12T16:49:42;15.00;99.90
9157;DHT22;4613;48.392;9.998;2022-10-12T16:52:36;15.00;99.90
9157;DHT22;4613;48.392;9.998;2022-10-12T16:55:25;15.00;99.90
9157;DHT22;4613;48.392;9.998;2022-10-12T16:58:15;15.10;99.90
9157;DHT22;4613;48.392;9.998;2022-10-12T17:01:09;15.00;99.90
9157;DHT22;4613;48.392;9.998;2022-10-12T17:03:59;15.00;99.90
9157;DHT22;4613;48.392;9.998;2022-10-12T17:06:50;14.90;99.90
9157;DHT22;4613;48.392;9.998;2022-10-12T17:09:41;15.00;99.90
9157;DHT22;4613;48.392;9.998;2022-10-12T17:12:30;15.00;99.90
9157;DHT22;4613;48.392;9.998;2022-10-12T17:15:21;15.00;99.90
9157;DHT22;4613;48.392;9.998;2022-10-12T17:18:10;15.00;99.90
9157;DHT22;4613;48.392;9.998;2022-10-12T17:20:59;14.90;99.90
9157;DHT22;4613;48.392;9.998;2022-10-12T17:23:50;14.80;99.90
9157;DHT22;4613;48.392;9.998;2022-10-12T17:26:40;14.80;99.90
9157;DHT22;4613;48.392;9.998;2022-10-12T17:29:30;14.70;99.90
9157;DHT22;4613;48.392;9.998;2022-10-12T17:32:20;14.70;99.90
9157;DHT22;4613;48.392;9.998;2022-10-12T17:35:10;14.60;99.90
9157;DHT22;4613;48.392;9.998;2022-10-12T17:38:00;14.60;99.90
9157;DHT22;4613;48.392;9.998;2022-10-12T17:40:50;14.50;99.90
9157;DHT22;4613;48.392;9.998;2022-10-12T17:43:41;14.60;99.90
9157;DHT22;4613;48.392;9.998;2022-10-12T17:46:31;14.60;99.90
9157;DHT22;4613;48.392;9.998;2022-10-12T17:49:20;14.60;99.90
9157;DHT22;4613;48.392;9.998;2022-10-12T17:52:10;14.60;99.90
9157;DHT22;4613;48.392;9.998;2022-10-12T17:54:59;14.60;99.90
9157;DHT22;4613;48.392;9.998;2022-10-12T17:57:50;14.70;99.90
9157;DHT22;4613;48.392;9.998;2022-10-12T18:00:39;14.70;99.90
9157;DHT22;4613;48.392;9.998;2022-10-12T18:03:34;14.60;99.90
9157;DHT22;4613;48.392;9.998;2022-10-12T18:06:24;14.60;99.90
9157;DHT22;4613;48.392;9.998;2022-10-12T18:09:14;14.60;99.90
9157;DHT22;4613;48.392;9.998;2022-10-12T18:12:05;14.60;99.90
9157;DHT22;4613;48.392;9.998;2022-10-12T18:14:55;14.50;99.90
9157;DHT22;4613;48.392;9.998;2022-10-12T18:17:44;14.50;99.90
9157;DHT22;4613;48.392;9.998;2022-10-12T18:20:33;14.50;99.90
9157;DHT22;4613;48.392;9.998;2022-10-12T18:23:23;14.50;99.90
9157;DHT22;4613;48.392;9.998;2022-10-12T18:26:13;14.50;99.90
9157;DHT22;4613;48.392;9.998;2022-10-12T18:29:08;14.50;99.90
9157;DHT22;4613;48.392;9.998;2022-10-12T18:32:00;14.40;99.90
9157;DHT22;4613;48.392;9.998;2022-10-12T18:34:49;14.40;99.90
9157;DHT22;4613;48.392;9.998;2022-10-12T18:37:39;14.50;99.90
9157;DHT22;4613;48.392;9.998;2022-10-12T18:40:33;14.50;99.90
9157;DHT22;4613;48.392;9.998;2022-10-12T18:43:24;14.50;99.90
9157;DHT22;4613;48.392;9.998;2022-10-12T18:46:14;14.40;99.90
9157;DHT22;4613;48.392;9.998;2022-10-12T18:49:10;14.30;99.90
9157;DHT22;4613;48.392;9.998;2022-10-12T18:51:59;14.30;99.90
9157;DHT22;4613;48.392;9.998;2022-10-12T18:54:50;14.20;99.90
9157;DHT22;4613;48.392;9.998;2022-10-12T18:57:41;14.20;99.90
9157;DHT22;4613;48.392;9.998;2022-10-12T19:00:31;14.20;99.90
9157;DHT22;4613;48.392;9.998;2022-10-12T19:03:20;14.10;99.90
9157;DHT22;4613;48.392;9.998;2022-10-12T19:06:13;14.10;99.90
9157;DHT22;4613;48.392;9.998;2022-10-12T19:09:04;14.10;99.90
9157;DHT22;4613;48.392;9.998;2022-10-12T19:11:54;14.10;99.90
9157;DHT22;4613;48.392;9.998;2022-10-12T19:14:47;14.10;99.90
9157;DHT22;4613;48.392;9.998;2022-10-12T19:17:37;14.10;99.90
9157;DHT22;4613;48.392;9.998;2022-10-12T19:20:26;14.20;99.90
9157;DHT22;4613;48.392;9.998;2022-10-12T19:23:17;14.10;99.90
9157;DHT22;4613;48.392;9.998;2022-10-12T19:26:12;13.90;99.90
9157;DHT22;4613;48.392;9.998;2022-10-12T19:29:03;13.70;99.90
9157;DHT22;4613;48.392;9.998;2022-10-12T19:31:52;13.80;99.90
9157;DHT22;4613;48.392;9.998;2022-10-12T19:35:07;13.70;99.90
9157;DHT22;4613;48.392;9.998;2022-10-12T19:37:57;13.70;99.90
9157;DHT22;4613;48.392;9.998;2022-10-12T19:40:49;13.80;99.90
9157;DHT22;4613;48.392;9.998;2022-10-12T19:43:39;13.70;99.90
9157;DHT22;4613;48.392;9.998;2022-10-12T19:46:31;13.40;99.90
9157;DHT22;4613;48.392;9.998;2022-10-12T19:49:20;13.60;99.90
9157;DHT22;4613;48.392;9.998;2022-10-12T19:52:11;13.50;99.90
9157;DHT22;4613;48.392;9.998;2022-10-12T19:55:00;13.60;99.90
9157;DHT22;4613;48.392;9.998;2022-10-12T19:57:51;13.60;99.90
9157;DHT22;4613;48.392;9.998;2022-10-12T20:00:41;13.60;99.90
9157;DHT22;4613;48.392;9.998;2022-10-12T20:03:32;13.50;99.90